createdAt,value
2023-03-31T00:03:21.911Z,2.60
2023-03-31T00:07:24.018Z,2.55
2023-03-31T00:11:26.488Z,3.80
2023-03-31T00:15:28.923Z,3.13
2023-03-31T00:19:33.162Z,4.50
2023-03-31T00:23:35.985Z,4.60
2023-03-31T00:27:37.780Z,4.22
2023-03-31T00:31:40.042Z,4.38
2023-03-31T00:35:41.892Z,4.78
2023-03-31T00:39:43.658Z,3.85
2023-03-31T00:44:08.232Z,4.25
2023-03-31T00:48:18.279Z,4.45
2023-03-31T00:52:24.776Z,5.25
2023-03-31T00:56:30.456Z,4.10
2023-03-31T01:00:32.439Z,4.28
2023-03-31T01:04:41.591Z,4.35
2023-03-31T01:08:44.448Z,4.45
2023-03-31T01:12:50.281Z,4.35
2023-03-31T01:16:53.648Z,4.00
2023-03-31T01:21:18.716Z,4.13
2023-03-31T01:25:29.618Z,2.40
2023-03-31T01:29:50.048Z,2.60
2023-03-31T01:34:00.315Z,4.18
2023-03-31T01:38:04.735Z,4.53
2023-03-31T01:42:12.516Z,4.30
2023-03-31T01:46:42.001Z,3.10
2023-03-31T01:50:51.545Z,2.28
2023-03-31T01:55:06.981Z,3.33
2023-03-31T01:59:27.324Z,4.55
2023-03-31T02:03:35.515Z,4.32
2023-03-31T02:07:43.191Z,4.70
2023-03-31T02:11:46.994Z,3.30
2023-03-31T02:15:54.323Z,2.30
2023-03-31T02:19:59.652Z,1.92
2023-03-31T02:24:05.983Z,2.20
2023-03-31T02:28:15.659Z,1.90
2023-03-31T02:32:37.905Z,1.70
2023-03-31T02:36:45.698Z,3.50
2023-03-31T02:40:49.211Z,3.67
2023-03-31T02:44:51.070Z,2.17
2023-03-31T02:48:57.226Z,1.65
2023-03-31T02:53:05.895Z,1.50
2023-03-31T02:57:19.771Z,3.30
2023-03-31T03:01:36.977Z,2.28
2023-03-31T03:11:01.414Z,1.67
2023-03-31T03:15:07.714Z,1.50
2023-03-31T03:23:13.133Z,1.40
2023-03-31T03:27:15.589Z,1.85
2023-03-31T03:31:18.026Z,1.83
2023-03-31T03:35:20.723Z,1.50
2023-03-31T03:39:22.650Z,1.70
2023-03-31T03:43:24.870Z,1.88
2023-03-31T03:47:27.603Z,2.08
2023-03-31T03:51:29.469Z,2.55
2023-03-31T03:55:31.355Z,2.55
2023-03-31T03:59:33.601Z,2.40
2023-03-31T04:03:35.656Z,2.30
2023-03-31T04:07:37.444Z,2.30
2023-03-31T04:11:39.583Z,2.38
2023-03-31T04:15:42.142Z,2.92
2023-03-31T04:19:44.183Z,2.35
2023-03-31T04:23:49.594Z,2.20
2023-03-31T04:27:55.456Z,2.25
2023-03-31T04:31:59.145Z,4.60
2023-03-31T04:36:06.937Z,4.00
2023-03-31T04:40:10.146Z,6.68
2023-03-31T04:44:12.075Z,4.60
2023-03-31T04:48:14.065Z,4.68
2023-03-31T04:52:16.376Z,3.67
2023-03-31T04:56:18.262Z,3.35
2023-03-31T05:00:21.194Z,4.45
2023-03-31T05:04:23.027Z,5.00
2023-03-31T05:08:24.753Z,5.30
2023-03-31T05:12:26.474Z,6.63
2023-03-31T05:16:28.307Z,6.05
2023-03-31T05:20:30.722Z,5.60
2023-03-31T05:24:32.437Z,6.97
2023-03-31T05:28:35.839Z,6.63
2023-03-31T05:32:37.621Z,6.05
2023-03-31T05:36:39.336Z,5.72
2023-03-31T05:40:41.570Z,4.53
2023-03-31T05:44:43.239Z,4.88
2023-03-31T05:48:45.031Z,3.15
2023-03-31T05:52:46.714Z,3.17
2023-03-31T05:56:48.489Z,3.10
2023-03-31T06:00:50.227Z,2.80
2023-03-31T06:04:52.162Z,2.80
2023-03-31T06:08:54.166Z,2.63
2023-03-31T06:12:55.916Z,2.95
2023-03-31T06:16:58.103Z,2.53
2023-03-31T06:21:00.504Z,2.35
2023-03-31T06:25:02.152Z,2.90
2023-03-31T06:29:03.945Z,3.90
2023-03-31T06:33:05.903Z,3.95
2023-03-31T06:37:07.664Z,3.60
2023-03-31T06:41:12.086Z,4.18
2023-03-31T06:45:13.799Z,5.28
2023-03-31T06:49:15.596Z,5.80
2023-03-31T06:53:17.456Z,4.90
2023-03-31T06:57:19.415Z,4.88
2023-03-31T07:01:21.298Z,4.88
2023-03-31T07:05:27.413Z,4.68
2023-03-31T07:09:29.109Z,4.35
2023-03-31T07:13:31.208Z,4.60
2023-03-31T07:17:32.950Z,5.22
2023-03-31T07:21:34.736Z,4.75
2023-03-31T07:25:36.516Z,4.47
2023-03-31T07:29:38.198Z,3.40
2023-03-31T07:33:40.399Z,4.60
2023-03-31T07:37:44.721Z,4.70
2023-03-31T07:41:46.441Z,5.30
2023-03-31T07:45:48.215Z,6.50
2023-03-31T07:49:50.444Z,4.60
2023-03-31T07:53:52.771Z,5.10
2023-03-31T07:57:54.752Z,3.53
2023-03-31T08:01:56.617Z,3.60
2023-03-31T08:05:58.652Z,4.60
2023-03-31T08:10:00.456Z,4.55
2023-03-31T08:14:02.196Z,3.47
2023-03-31T08:18:05.034Z,6.38
2023-03-31T08:22:06.941Z,3.47
2023-03-31T08:26:21.863Z,5.55
2023-03-31T08:30:23.769Z,7.43
2023-03-31T08:34:26.060Z,5.10
2023-03-31T08:38:27.753Z,4.57
2023-03-31T08:42:50.159Z,4.70
2023-03-31T08:46:55.344Z,3.80
2023-03-31T08:51:09.874Z,2.70
2023-03-31T08:55:19.991Z,6.30
2023-03-31T08:59:29.608Z,5.53
2023-03-31T09:03:58.430Z,6.38
2023-03-31T09:08:20.883Z,5.38
2023-03-31T09:12:43.903Z,5.82
2023-03-31T09:16:54.332Z,6.95
2023-03-31T09:21:07.269Z,5.15
2023-03-31T09:25:19.654Z,6.47
2023-03-31T09:29:29.588Z,5.50
2023-03-31T09:33:34.095Z,5.78
2023-03-31T09:37:35.996Z,6.65
2023-03-31T09:41:39.024Z,6.57
2023-03-31T09:45:40.879Z,5.30
2023-03-31T09:49:53.433Z,4.90
2023-03-31T09:54:07.214Z,4.80
2023-03-31T09:58:14.394Z,4.50
2023-03-31T10:06:42.176Z,5.18
2023-03-31T10:10:49.815Z,4.90
2023-03-31T10:14:54.372Z,5.05
2023-03-31T10:19:11.211Z,4.63
2023-03-31T10:23:17.448Z,5.30
2023-03-31T10:27:25.776Z,6.10
2023-03-31T10:31:36.037Z,4.93
2023-03-31T10:35:37.865Z,5.20
2023-03-31T10:39:39.720Z,4.43
2023-03-31T10:43:50.368Z,5.60
2023-03-31T10:47:57.494Z,5.43
2023-03-31T10:52:01.206Z,4.90
2023-03-31T10:56:22.802Z,4.88
2023-03-31T11:00:37.966Z,4.30
2023-03-31T11:04:55.950Z,3.75
2023-03-31T11:09:33.269Z,4.25
2023-03-31T11:13:40.908Z,4.03
2023-03-31T11:18:06.921Z,3.75
2023-03-31T11:22:31.572Z,4.45
2023-03-31T11:26:54.383Z,4.57
2023-03-31T11:31:06.740Z,4.15
2023-03-31T11:35:36.211Z,3.38
2023-03-31T11:39:45.344Z,4.43
2023-03-31T11:44:00.577Z,4.20
2023-03-31T11:48:10.843Z,3.40
2023-03-31T11:52:17.275Z,1.85
2023-03-31T11:56:20.886Z,1.70
2023-03-31T12:00:32.555Z,1.60
2023-03-31T12:04:42.683Z,1.58
2023-03-31T12:09:13.471Z,1.80
2023-03-31T12:13:41.363Z,1.50
2023-03-31T12:17:47.733Z,1.58
2023-03-31T12:21:55.344Z,1.80
2023-03-31T12:26:08.195Z,1.50
2023-03-31T12:30:25.443Z,1.60
2023-03-31T12:34:29.058Z,2.30
2023-03-31T12:39:18.321Z,1.80
2023-03-31T12:43:28.801Z,2.70
2023-03-31T12:47:53.258Z,2.20
2023-03-31T12:52:15.991Z,2.45
2023-03-31T12:56:17.739Z,2.40
2023-03-31T13:00:21.308Z,2.65
2023-03-31T13:04:27.211Z,2.55
2023-03-31T13:08:49.778Z,2.90
2023-03-31T13:12:57.352Z,2.15
2023-03-31T13:17:48.351Z,2.40
2023-03-31T13:21:58.616Z,1.95
2023-03-31T13:26:00.632Z,2.17
2023-03-31T13:30:02.399Z,2.05
2023-03-31T13:34:04.260Z,2.30
2023-03-31T13:38:12.200Z,2.30
2023-03-31T13:42:32.945Z,2.08
2023-03-31T13:47:00.597Z,2.20
2023-03-31T13:55:59.344Z,1.90
2023-03-31T14:00:18.317Z,2.38
2023-03-31T14:04:25.694Z,2.50
2023-03-31T14:08:45.764Z,2.30
2023-03-31T14:12:48.892Z,2.15
2023-03-31T14:17:00.281Z,1.90
2023-03-31T14:21:21.149Z,2.30
2023-03-31T14:25:42.810Z,1.80
2023-03-31T14:30:18.609Z,1.88
2023-03-31T14:34:35.521Z,2.33
2023-03-31T14:38:37.768Z,2.10
2023-03-31T14:42:41.058Z,1.98
2023-03-31T14:46:42.832Z,2.17
2023-03-31T14:50:46.806Z,2.30
2023-03-31T14:54:48.658Z,2.22
2023-03-31T14:58:53.452Z,2.38
2023-03-31T15:02:55.287Z,2.00
2023-03-31T15:07:00.436Z,2.10
2023-03-31T15:15:14.847Z,2.05
2023-03-31T15:19:16.552Z,2.30
2023-03-31T15:23:28.219Z,2.03
2023-03-31T15:27:36.879Z,2.85
2023-03-31T15:31:41.026Z,1.90
2023-03-31T15:35:43.696Z,2.13
2023-03-31T15:39:48.308Z,1.70
2023-03-31T15:44:04.765Z,2.20
2023-03-31T15:48:20.449Z,1.47
2023-03-31T15:52:23.042Z,1.30
2023-03-31T15:56:24.918Z,0.93
2023-03-31T16:00:47.274Z,1.00
2023-03-31T16:04:54.436Z,1.17
2023-03-31T16:13:06.520Z,0.98
2023-03-31T16:17:18.458Z,1.30
2023-03-31T16:21:27.212Z,1.30
2023-03-31T16:25:31.876Z,0.93
2023-03-31T16:29:37.021Z,1.58
2023-03-31T16:33:56.720Z,1.30
2023-03-31T16:37:59.129Z,0.90
2023-03-31T16:42:00.939Z,0.80
2023-03-31T16:46:04.029Z,0.80
2023-03-31T16:50:07.652Z,0.85
2023-03-31T16:54:09.527Z,1.00
2023-03-31T16:58:11.918Z,1.00
2023-03-31T17:02:13.969Z,1.30
2023-03-31T17:06:16.076Z,1.00
2023-03-31T17:10:17.908Z,0.93
2023-03-31T17:14:19.869Z,0.80
2023-03-31T17:18:21.712Z,1.00
2023-03-31T17:22:23.485Z,0.88
2023-03-31T17:26:26.889Z,1.25
2023-03-31T17:30:28.871Z,1.10
2023-03-31T17:34:30.818Z,0.90
2023-03-31T17:38:32.654Z,0.88
2023-03-31T17:42:34.358Z,1.08
2023-03-31T17:46:36.463Z,1.20
2023-03-31T17:50:38.447Z,1.17
2023-03-31T17:54:40.614Z,1.15
2023-03-31T17:58:42.672Z,1.10
2023-03-31T18:02:44.483Z,1.25
2023-03-31T18:06:48.465Z,1.40
2023-03-31T18:10:50.613Z,1.15
2023-03-31T18:14:52.469Z,1.45
2023-03-31T18:18:54.113Z,1.55
2023-03-31T18:22:55.828Z,1.27
2023-03-31T18:26:57.535Z,1.60
2023-03-31T18:31:06.074Z,1.60
2023-03-31T18:35:08.294Z,1.98
2023-03-31T18:39:10.755Z,1.77
2023-03-31T18:43:12.425Z,2.00
2023-03-31T18:47:14.163Z,2.00
2023-03-31T18:51:15.960Z,1.70
2023-03-31T18:55:18.576Z,1.48
2023-03-31T18:59:20.330Z,1.98
2023-03-31T19:03:22.512Z,1.70
2023-03-31T19:07:24.234Z,2.10
2023-03-31T19:11:27.212Z,1.58
2023-03-31T19:15:29.380Z,1.70
2023-03-31T19:19:31.261Z,1.48
2023-03-31T19:23:33.315Z,1.30
2023-03-31T19:27:35.389Z,1.10
2023-03-31T19:31:40.664Z,0.88
2023-03-31T19:35:44.704Z,0.90
2023-03-31T19:39:46.859Z,1.00
2023-03-31T19:43:49.013Z,0.90
2023-03-31T19:47:50.988Z,1.00
2023-03-31T19:51:52.869Z,0.93
2023-03-31T19:55:59.811Z,0.90
2023-03-31T20:00:03.997Z,0.90
2023-03-31T20:04:07.338Z,0.93
2023-03-31T20:08:09.331Z,1.10
2023-03-31T20:12:11.067Z,0.85
2023-03-31T20:16:16.560Z,1.00
2023-03-31T20:20:18.635Z,1.00
2023-03-31T20:24:20.636Z,0.68
2023-03-31T20:28:22.579Z,0.70
2023-03-31T20:32:24.280Z,0.90
2023-03-31T20:36:32.176Z,0.80
2023-03-31T20:40:33.952Z,0.85
2023-03-31T20:44:36.161Z,1.00
2023-03-31T20:48:42.323Z,0.90
2023-03-31T20:52:45.762Z,0.80
2023-03-31T20:56:47.537Z,1.00
2023-03-31T21:00:49.333Z,0.90
2023-03-31T21:04:52.524Z,1.30
2023-03-31T21:08:55.468Z,1.00
2023-03-31T21:12:57.158Z,0.90
2023-03-31T21:16:59.101Z,1.10
2023-03-31T21:21:03.608Z,0.80
2023-03-31T21:25:05.870Z,1.00
2023-03-31T21:29:07.999Z,0.95
2023-03-31T21:33:09.724Z,0.82
2023-03-31T21:37:11.440Z,0.88
2023-03-31T21:41:19.262Z,0.88
2023-03-31T21:45:21.789Z,0.90
2023-03-31T21:49:23.687Z,1.10
2023-03-31T21:53:25.451Z,1.02
2023-03-31T21:57:27.225Z,0.95
2023-03-31T22:01:29.014Z,1.20
2023-03-31T22:05:33.063Z,0.90
2023-03-31T22:09:34.960Z,1.30
2023-03-31T22:13:37.667Z,0.77
2023-03-31T22:17:39.453Z,1.52
2023-03-31T22:21:43.476Z,0.90
2023-03-31T22:25:45.517Z,1.02
2023-03-31T22:29:47.229Z,1.00
2023-03-31T22:33:49.649Z,1.23
2023-03-31T22:37:51.392Z,1.02
2023-03-31T22:41:53.175Z,1.10
2023-03-31T22:45:54.975Z,0.90
2023-03-31T22:49:56.693Z,1.13
2023-03-31T22:53:58.780Z,0.90
2023-03-31T22:58:00.427Z,1.27
2023-03-31T23:02:02.370Z,0.98
2023-03-31T23:06:05.636Z,1.23
2023-03-31T23:10:08.020Z,1.00
2023-03-31T23:14:09.780Z,1.13
2023-03-31T23:18:11.489Z,0.90
2023-03-31T23:22:14.251Z,1.00
2023-03-31T23:26:18.971Z,1.08
2023-03-31T23:30:20.685Z,1.20
2023-03-31T23:34:22.397Z,1.05
2023-03-31T23:38:24.163Z,1.20
2023-03-31T23:42:26.228Z,0.90
2023-03-31T23:46:28.024Z,1.10
2023-03-31T23:50:29.881Z,0.93
2023-03-31T23:54:31.590Z,1.02
2023-03-31T23:58:34.346Z,1.17
